Time;durP1;ratioP1;P1;durP2;ratioP2;P2;SDS_P1;SDS_P2;PMS_P1;PMS_P2;Temp;Humidity;BMP_temperature;BMP_pressure;BME280_temperature;BME280_humidity;BME280_pressure;Samples;Min_cycle;Max_cycle;Signal;HPM_P1;HPM_P2
2022/01/11 00:01:14;;;;;;;0.68;0.55;;;;;;;0.38;79.63;92751.91;5050809;28;20025;-39
2022/01/11 00:03:41;;;;;;;1.33;0.55;;;;;;;0.35;80.03;92755.59;5050929;28;20021;-40
2022/01/11 00:06:30;;;;;;;1.65;1.10;;;;;;;0.34;79.54;92749.47;5050183;28;20029;-39
2022/01/11 00:09:06;;;;;;;5.53;2.00;;;;;;;0.22;79.32;92736.44;5050829;28;20107;-39
2022/01/11 00:11:31;;;;;;;5.82;2.67;;;;;;;0.35;79.51;92761.78;5050687;28;20087;-38
2022/01/11 00:13:57;;;;;;;3.40;1.60;;;;;;;0.35;79.09;92769.19;5050825;28;20050;-39
2022/01/11 00:16:22;;;;;;;1.77;0.80;;;;;;;0.32;79.10;92762.06;5050591;28;20533;-39
2022/01/11 00:18:48;;;;;;;6.90;3.10;;;;;;;0.31;79.47;92779.56;5050735;28;20024;-39
2022/01/11 00:21:14;;;;;;;7.10;3.20;;;;;;;0.36;79.56;92779.56;5050486;28;20115;-39
2022/01/11 00:26:05;;;;;;;1.92;1.50;;;;;;;0.36;79.49;92776.84;5050434;28;20748;-39
2022/01/11 00:28:30;;;;;;;1.75;1.30;;;;;;;0.33;79.84;92790.66;5050534;28;20028;-39
2022/01/11 00:30:56;;;;;;;2.65;1.20;;;;;;;0.37;80.31;92770.16;5050630;28;20032;-39
2022/01/11 00:33:30;;;;;;;2.22;1.52;;;;;;;0.48;78.83;92789.13;5050501;28;20518;-39
2022/01/11 00:36:03;;;;;;;0.40;0.40;;;;;;;0.55;78.33;92783.19;5049955;28;20025;-39
2022/01/11 00:38:31;;;;;;;1.48;0.80;;;;;;;0.45;79.05;92792.13;5050134;28;20080;-39
2022/01/11 00:41:00;;;;;;;1.20;0.80;;;;;;;0.43;79.17;92794.59;5050233;28;20395;-39
2022/01/11 00:43:27;;;;;;;1.20;0.60;;;;;;;0.41;79.35;92788.94;5050525;28;20111;-39
2022/01/11 00:45:55;;;;;;;1.50;0.98;;;;;;;0.36;79.22;92800.53;5050152;28;20573;-39
2022/01/11 00:48:20;;;;;;;0.80;0.80;;;;;;;0.42;78.97;92791.13;5049863;28;20053;-38
2022/01/11 00:50:47;;;;;;;0.57;0.47;;;;;;;0.37;78.80;92794.59;5050327;28;20494;-39
2022/01/11 00:53:13;;;;;;;0.50;0.50;;;;;;;0.30;79.07;92799.81;5050333;28;20021;-39
2022/01/11 00:55:38;;;;;;;0.60;0.60;;;;;;;0.15;79.63;92786.53;5049962;28;20582;-39
2022/01/11 00:58:05;;;;;;;0.65;0.60;;;;;;;0.22;79.80;92796.88;5050127;28;20303;-39
2022/01/11 01:00:31;;;;;;;42.20;1.95;;;;;;;0.28;79.26;92805.72;5050260;28;20024;-38
2022/01/11 01:02:57;;;;;;;0.30;0.30;;;;;;;0.30;79.01;92818.81;5050263;28;20025;-39
2022/01/11 01:05:22;;;;;;;0.32;0.32;;;;;;;0.11;79.21;92802.31;5050202;28;20044;-39
2022/01/11 01:07:49;;;;;;;0.63;0.60;;;;;;;0.26;79.37;92818.34;5050168;28;20032;-38
2022/01/11 01:10:26;;;;;;;0.80;0.50;;;;;;;0.31;78.99;92820.28;5049788;28;20029;-38
2022/01/11 01:12:57;;;;;;;1.90;0.65;;;;;;;0.27;78.77;92815.13;5049942;28;20396;-39
2022/01/11 01:15:25;;;;;;;0.60;0.60;;;;;;;0.27;79.48;92819.81;5050154;28;20021;-39
2022/01/11 01:17:51;;;;;;;1.02;0.52;;;;;;;0.29;78.60;92811.91;5052289;28;20103;-39
2022/01/11 01:20:17;;;;;;;0.63;0.63;;;;;;;0.27;79.99;92808.94;5054087;28;20086;-39
2022/01/11 01:22:42;;;;;;;0.75;0.50;;;;;;;0.36;79.33;92817.56;5053777;28;20116;-39
2022/01/11 01:25:08;;;;;;;0.82;0.40;;;;;;;0.31;79.24;92823.75;5053782;28;20112;-39
2022/01/11 01:27:34;;;;;;;0.30;0.30;;;;;;;0.31;78.88;92818.31;5053928;28;20021;-40
2022/01/11 01:30:00;;;;;;;0.40;0.40;;;;;;;0.35;78.37;92820.78;5053758;28;20025;-39
2022/01/11 01:32:26;;;;;;;0.45;0.45;;;;;;;0.28;79.21;92824.72;5053592;28;20032;-39
2022/01/11 01:34:51;;;;;;;0.60;0.60;;;;;;;0.31;78.14;92826.47;5051944;28;20017;-39
2022/01/11 01:37:17;;;;;;;2.75;1.20;;;;;;;0.33;78.69;92848.44;5052116;28;20041;-39
2022/01/11 01:39:43;;;;;;;0.80;0.60;;;;;;;0.25;78.94;92836.59;5052229;28;20017;-38
2022/01/11 01:42:11;;;;;;;0.40;0.40;;;;;;;0.18;78.69;92828.97;5053729;28;20048;-39
2022/01/11 01:44:38;;;;;;;0.98;0.60;;;;;;;0.11;78.49;92832.19;5053209;28;20426;-39
2022/01/11 01:47:04;;;;;;;13.27;1.50;;;;;;;0.14;79.40;92830.44;5053599;28;20100;-38
2022/01/11 01:49:31;;;;;;;0.95;0.55;;;;;;;0.13;79.01;92837.13;5053207;28;20043;-39
2022/01/11 01:51:57;;;;;;;0.63;0.63;;;;;;;0.18;78.87;92839.06;5053443;28;20055;-38
2022/01/11 01:54:24;;;;;;;7.25;0.93;;;;;;;0.16;79.00;92814.41;5052376;28;20486;-39
2022/01/11 01:56:50;;;;;;;39.38;2.47;;;;;;;0.12;78.68;92830.97;5053090;28;20517;-38
2022/01/11 01:59:16;;;;;;;1.00;0.65;;;;;;;0.05;78.80;92842.31;5053499;28;20025;-38
2022/01/11 02:01:45;;;;;;;2.63;0.80;;;;;;;0.05;79.58;92842.31;5053367;28;20524;-38
2022/01/11 02:04:12;;;;;;;0.60;0.52;;;;;;;0.00;79.59;92830.22;5053264;28;20048;-38
2022/01/11 02:06:37;;;;;;;0.50;0.50;;;;;;;0.00;79.39;92840.38;5052955;28;20104;-40
2022/01/11 02:09:04;;;;;;;0.90;0.60;;;;;;;0.09;79.74;92847.50;5053104;28;20105;-38
2022/01/11 02:11:31;;;;;;;1.67;1.10;;;;;;;0.16;79.23;92847.72;5052938;28;20486;-38
2022/01/11 02:13:56;;;;;;;2.45;1.70;;;;;;;0.23;78.97;92858.09;5053098;28;20032;-38
2022/01/11 02:16:23;;;;;;;0.30;0.30;;;;;;;0.23;79.24;92847.22;5053124;28;20025;-38
2022/01/11 02:18:52;;;;;;;0.88;0.75;;;;;;;0.30;78.88;92840.53;5052683;28;20009;-39
2022/01/11 02:21:18;;;;;;;0.57;0.57;;;;;;;0.32;78.41;92838.06;5052640;28;20512;-39
2022/01/11 02:23:44;;;;;;;1.48;1.17;;;;;;;0.35;78.40;92859.53;5052672;28;20025;-39
2022/01/11 02:26:10;;;;;;;0.93;0.82;;;;;;;0.30;78.18;92856.84;5052930;28;20021;-39
2022/01/11 02:28:37;;;;;;;178.43;15.60;;;;;;;0.26;78.81;92864.50;5051823;28;20040;-39
2022/01/11 02:31:07;;;;;;;7.85;3.50;;;;;;;0.18;78.17;92863.50;5052458;28;20111;-39
2022/01/11 02:33:38;;;;;;;2.97;1.88;;;;;;;0.27;78.48;92871.38;5052761;28;20110;-39
2022/01/11 02:36:07;;;;;;;5.97;3.50;;;;;;;0.35;77.65;92873.09;5052163;28;20025;-39
2022/01/11 02:38:33;;;;;;;;;;;;;;;0.33;77.99;92867.44;5053063;28;20063;-39
2022/01/11 02:40:59;;;;;;;11.23;4.38;;;;;;;0.33;77.58;92882.97;5052280;28;19913;-39
2022/01/11 02:43:25;;;;;;;4.05;2.30;;;;;;;0.24;78.47;92875.13;5052314;28;20021;-39
2022/01/11 02:45:51;;;;;;;2.15;1.38;;;;;;;0.24;77.80;92873.13;5052143;28;20491;-39
2022/01/11 02:48:17;;;;;;;1.92;0.98;;;;;;;0.31;77.98;92877.31;5052567;28;20036;-40
2022/01/11 02:50:45;;;;;;;0.80;0.80;;;;;;;0.34;77.14;92873.59;5052303;28;20029;-38
2022/01/11 02:53:11;;;;;;;0.50;0.50;;;;;;;0.23;77.08;92854.63;5052128;28;20024;-40
2022/01/11 02:55:39;;;;;;;1.48;1.05;;;;;;;0.39;76.54;92876.28;5052040;28;20435;-39
2022/01/11 02:58:05;;;;;;;0.68;0.68;;;;;;;0.37;77.08;92859.75;5052081;28;20172;-39
2022/01/11 03:00:30;;;;;;;0.88;0.70;;;;;;;0.30;77.25;92884.72;5052032;28;20136;-39
2022/01/11 03:02:56;;;;;;;1.00;0.90;;;;;;;0.34;76.69;92876.31;5052194;28;20029;-39
2022/01/11 03:05:21;;;;;;;0.73;0.70;;;;;;;0.22;76.68;92877.59;5052080;28;20021;-38
2022/01/11 03:07:47;;;;;;;0.60;0.60;;;;;;;0.23;77.55;92873.63;5051855;28;20021;-38
2022/01/11 03:12:47;;;;;;;0.63;0.63;;;;;;;0.21;76.79;92881.53;5051861;28;20095;-39
2022/01/11 03:15:13;;;;;;;0.50;0.50;;;;;;;0.17;76.37;92881.78;5051579;28;20033;-38
2022/01/11 03:17:39;;;;;;;0.63;0.63;;;;;;;0.22;77.26;92880.31;5051974;28;20017;-39
2022/01/11 03:20:06;;;;;;;17.30;1.73;;;;;;;0.25;77.33;92882.00;5051901;28;20100;-39
2022/01/11 03:22:31;;;;;;;1.27;0.55;;;;;;;0.23;76.45;92877.09;5052053;28;20024;-40
2022/01/11 03:24:57;;;;;;;0.95;0.60;;;;;;;0.27;76.26;92882.25;5051769;28;20464;-39
2022/01/11 03:27:23;;;;;;;0.60;0.60;;;;;;;0.18;77.17;92887.94;5051730;28;20418;-39
2022/01/11 03:29:51;;;;;;;10.55;1.67;;;;;;;0.13;76.76;92886.69;5051658;28;20026;-39
2022/01/11 03:32:18;;;;;;;0.55;0.55;;;;;;;0.06;76.86;92900.03;5051427;28;20103;-39
2022/01/11 03:34:45;;;;;;;0.93;0.60;;;;;;;0.08;76.88;92894.88;5050841;28;20074;-39
2022/01/11 03:37:14;;;;;;;1.05;0.75;;;;;;;0.12;77.23;92884.50;5051035;28;20579;-38
2022/01/11 03:39:40;;;;;;;0.40;0.40;;;;;;;0.14;76.09;92871.91;5051358;28;20024;-38
2022/01/11 03:42:05;;;;;;;0.40;0.40;;;;;;;0.12;76.81;92873.63;5051253;28;20039;-38
2022/01/11 03:44:31;;;;;;;0.45;0.45;;;;;;;0.12;76.77;92887.22;5051346;28;20082;-39
2022/01/11 03:46:58;;;;;;;0.60;0.60;;;;;;;0.14;76.93;92890.91;5051430;28;20086;-39
2022/01/11 03:49:23;;;;;;;0.50;0.50;;;;;;;0.12;76.84;92887.22;5051257;28;20083;-39
2022/01/11 03:51:50;;;;;;;1.13;0.40;;;;;;;0.14;76.75;92885.47;5051346;28;20036;-38
2022/01/11 03:54:23;;;;;;;0.50;0.50;;;;;;;0.10;76.42;92893.13;5051304;28;20429;-39
2022/01/11 03:56:48;;;;;;;5.65;1.75;;;;;;;0.07;76.94;92901.50;5050943;28;20031;-38
2022/01/11 03:59:14;;;;;;;0.30;0.30;;;;;;;0.10;76.67;92901.28;5051220;28;20029;-38
2022/01/11 04:01:40;;;;;;;0.63;0.45;;;;;;;0.14;77.29;92903.72;5050760;28;20113;-39
2022/01/11 04:04:06;;;;;;;1.13;0.75;;;;;;;0.19;76.71;92900.28;5051026;28;20021;-39
2022/01/11 04:06:32;;;;;;;0.98;0.60;;;;;;;0.17;77.60;92903.50;5051062;28;20021;-39
2022/01/11 04:08:57;;;;;;;0.47;0.47;;;;;;;0.14;76.15;92903.72;5050564;28;20547;-39
2022/01/11 04:11:23;;;;;;;1.65;0.60;;;;;;;0.12;76.08;92900.78;5050636;28;20062;-39
2022/01/11 04:13:49;;;;;;;0.47;0.47;;;;;;;0.02;76.04;92913.88;5050620;28;20052;-39
2022/01/11 04:16:15;;;;;;;0.40;0.40;;;;;;;-0.03;77.19;92918.06;5050842;28;20094;-38
2022/01/11 04:18:40;;;;;;;0.50;0.50;;;;;;;0.08;76.33;92916.56;5050544;28;20028;-39
2022/01/11 04:21:06;;;;;;;0.40;0.40;;;;;;;0.06;75.61;92913.63;5050549;28;20021;-38
2022/01/11 04:23:32;;;;;;;1.00;1.00;;;;;;;-0.02;76.04;92927.66;5050425;28;20025;-39
2022/01/11 04:25:59;;;;;;;0.40;0.40;;;;;;;-0.03;75.75;92931.63;5050712;28;20020;-39
2022/01/11 04:28:26;;;;;;;0.45;0.45;;;;;;;-0.01;75.37;92936.56;5050309;28;20032;-40
2022/01/11 04:30:52;;;;;;;0.80;0.65;;;;;;;-0.11;75.81;92933.34;5050667;28;20033;-39
2022/01/11 04:33:18;;;;;;;0.57;0.57;;;;;;;-0.08;75.74;92932.38;5050207;28;20047;-39
2022/01/11 04:35:48;;;;;;;0.50;0.50;;;;;;;-0.13;75.94;92937.81;5049980;28;20475;-39
2022/01/11 04:38:16;;;;;;;0.40;0.40;;;;;;;-0.16;75.67;92941.47;5050103;28;20053;-39
2022/01/11 04:40:42;;;;;;;0.70;0.70;;;;;;;-0.10;76.98;92945.69;5050458;28;20044;-39
2022/01/11 04:43:07;;;;;;;0.98;0.40;;;;;;;-0.15;75.40;92945.66;5050538;28;20126;-39
2022/01/11 04:45:33;;;;;;;2.00;1.50;;;;;;;-0.47;75.66;92926.16;5050416;28;20025;-40
2022/01/11 04:47:58;;;;;;;0.40;0.40;;;;;;;-0.27;76.07;92963.16;5050499;28;20478;-39
2022/01/11 04:50:28;;;;;;;0.30;0.30;;;;;;;-0.38;76.12;92974.00;5050350;28;20484;-39
2022/01/11 04:52:54;;;;;;;1.15;1.05;;;;;;;-0.35;76.61;92962.91;5049758;28;20024;-39
2022/01/11 04:55:19;;;;;;;0.60;0.60;;;;;;;-0.36;76.24;92966.84;5050041;28;20139;-39
2022/01/11 04:57:45;;;;;;;0.47;0.45;;;;;;;-0.45;76.23;92963.63;5050250;28;20024;-39
2022/01/11 05:00:12;;;;;;;0.57;0.57;;;;;;;-0.38;75.83;92974.75;5050257;28;20021;-39
2022/01/11 05:02:38;;;;;;;0.50;0.50;;;;;;;-0.43;76.08;92989.03;5050245;28;20502;-39
2022/01/11 05:05:04;;;;;;;0.43;0.43;;;;;;;-0.45;76.87;92988.78;5049914;28;20027;-39
2022/01/11 05:07:29;;;;;;;0.47;0.47;;;;;;;-0.47;76.55;92976.91;5050236;28;20418;-40
2022/01/11 05:09:55;;;;;;;0.47;0.47;;;;;;;-0.50;75.92;92975.97;5049783;28;20056;-39
2022/01/11 05:12:21;;;;;;;0.40;0.40;;;;;;;-0.55;75.98;92990.22;5050221;28;20031;-39
2022/01/11 05:14:46;;;;;;;0.30;0.30;;;;;;;-0.52;76.80;92991.94;5050193;28;20025;-39
2022/01/11 05:17:12;;;;;;;0.35;0.30;;;;;;;-0.53;76.87;92993.19;5050123;28;20478;-38
2022/01/11 05:19:37;;;;;;;0.40;0.40;;;;;;;-0.71;76.18;92979.34;5050157;28;20021;-39
2022/01/11 05:22:03;;;;;;;0.65;0.65;;;;;;;-0.53;77.10;92995.91;5049711;28;20494;-39
2022/01/11 05:24:28;;;;;;;4.60;1.73;;;;;;;-0.47;77.32;93001.31;5050132;28;20024;-39
2022/01/11 05:26:54;;;;;;;1.13;0.93;;;;;;;-0.56;77.08;92998.84;5050059;28;20036;-39
2022/01/11 05:29:20;;;;;;;3.00;1.55;;;;;;;-0.52;76.37;93010.22;5049580;28;20422;-39
2022/01/11 05:31:45;;;;;;;0.77;0.65;;;;;;;-0.50;76.76;93013.91;5050028;28;20040;-39
2022/01/11 05:34:11;;;;;;;5.93;3.33;;;;;;;-0.50;77.87;93008.50;5049940;28;20017;-39
2022/01/11 05:36:36;;;;;;;2.35;1.77;;;;;;;-0.56;77.66;93015.13;5049144;28;20051;-39
2022/01/11 05:39:02;;;;;;;3.22;2.05;;;;;;;-0.59;77.89;92997.84;5050255;28;20485;-39
2022/01/11 05:41:30;;;;;;;1.70;1.25;;;;;;;-0.47;77.91;93012.91;5049687;28;20024;-40
2022/01/11 05:43:56;;;;;;;3.83;1.70;;;;;;;-0.41;77.37;93021.81;5049966;28;20067;-39
2022/01/11 05:46:21;;;;;;;7.65;3.70;;;;;;;-0.44;77.32;93027.47;5049539;28;20509;-39
2022/01/11 05:48:47;;;;;;;3.38;1.83;;;;;;;-0.49;77.08;93036.31;5049868;28;20057;-39
2022/01/11 05:51:14;;;;;;;1.10;0.90;;;;;;;-0.52;77.10;93043.47;5049520;28;20375;-39
2022/01/11 05:53:39;;;;;;;3.58;1.50;;;;;;;-0.64;77.60;93055.50;5049854;28;20028;-40
2022/01/11 05:56:05;;;;;;;2.33;1.48;;;;;;;-0.66;77.96;93044.41;5049525;28;20025;-39
2022/01/11 05:58:30;;;;;;;3.42;1.60;;;;;;;-0.67;77.76;93042.19;5049476;28;20029;-40
2022/01/11 06:00:56;;;;;;;2.90;2.05;;;;;;;-0.63;77.93;93035.31;5049469;28;20024;-39
2022/01/11 06:03:21;;;;;;;2.47;1.40;;;;;;;-0.67;77.75;93040.19;5049474;28;20025;-39
2022/01/11 06:05:47;;;;;;;2.55;1.98;;;;;;;-0.64;78.16;93044.66;5052790;28;20045;-39
2022/01/11 06:08:16;;;;;;;5.60;3.30;;;;;;;-0.87;78.08;93021.41;5052931;28;20025;-39
2022/01/11 06:10:42;;;;;;;;;;;;;;;-0.72;77.51;93051.03;5053267;28;20025;-39
2022/01/11 06:13:07;;;;;;;3.33;1.77;;;;;;;-0.73;77.68;93050.28;5052943;28;20007;-39
2022/01/11 06:15:34;;;;;;;2.75;1.67;;;;;;;-0.69;77.54;93045.38;5053056;28;20025;-39
2022/01/11 06:17:59;;;;;;;3.05;1.73;;;;;;;-0.60;77.91;93061.44;5052863;28;20104;-39
2022/01/11 06:20:25;;;;;;;8.60;3.17;;;;;;;-0.61;76.92;93068.09;5052736;28;20253;-39
2022/01/11 06:22:51;;;;;;;2.63;1.63;;;;;;;-0.63;78.12;93058.97;5052670;28;20113;-40
2022/01/11 06:25:16;;;;;;;2.60;1.42;;;;;;;-0.73;78.47;93071.97;5052682;28;20084;-39
2022/01/11 06:27:42;;;;;;;6.40;2.63;;;;;;;-0.74;77.97;93073.19;5052585;28;20565;-39
2022/01/11 06:30:09;;;;;;;1.77;1.55;;;;;;;-0.73;78.49;93063.84;5052533;28;20028;-39
2022/01/11 06:32:36;;;;;;;2.03;0.95;;;;;;;-0.80;78.98;93077.84;5052517;28;20021;-39
2022/01/11 06:35:03;;;;;;;1.13;1.00;;;;;;;-0.88;79.93;93079.53;5051819;28;20024;-39
2022/01/11 06:37:28;;;;;;;1.55;1.00;;;;;;;-0.84;79.64;93085.44;5052395;28;20052;-39
2022/01/11 06:39:54;;;;;;;1.20;1.00;;;;;;;-0.83;79.40;93092.38;5052303;28;20037;-39
2022/01/11 06:42:20;;;;;;;2.17;1.48;;;;;;;-0.87;79.70;93091.84;5052405;28;20021;-39
2022/01/11 06:44:45;;;;;;;1.10;0.90;;;;;;;-0.84;79.97;93107.13;5052557;28;20028;-38
2022/01/11 06:47:11;;;;;;;1.52;1.35;;;;;;;-0.83;79.54;93108.63;5052564;28;20025;-38
2022/01/11 06:49:37;;;;;;;1.90;1.35;;;;;;;-0.98;80.44;93091.78;5052462;28;20029;-39
2022/01/11 06:52:04;;;;;;;1.23;0.93;;;;;;;-0.99;80.65;93111.97;5052384;28;20513;-40
2022/01/11 06:54:29;;;;;;;5.68;1.83;;;;;;;-0.89;79.75;93122.13;5052088;28;20486;-38
2022/01/11 06:56:55;;;;;;;1.38;1.00;;;;;;;-0.97;79.96;93133.91;5052338;28;20094;-38
2022/01/11 06:59:20;;;;;;;1.92;1.55;;;;;;;-0.97;81.38;93126.50;5051988;28;20109;-39
2022/01/11 07:01:46;;;;;;;6.03;3.60;;;;;;;-0.97;80.90;93139.31;5051997;28;20075;-38
2022/01/11 07:04:12;;;;;;;1.50;1.40;;;;;;;-1.08;80.79;93131.84;5052093;28;20021;-39
2022/01/11 07:06:37;;;;;;;1.27;1.08;;;;;;;-1.04;80.88;93143.22;5052193;28;20104;-39
2022/01/11 07:09:03;;;;;;;1.23;1.13;;;;;;;-1.02;80.71;93143.47;5051963;28;20083;-39
2022/01/11 07:11:29;;;;;;;0.93;0.93;;;;;;;-1.07;80.97;93138.03;5051837;28;20666;-38
2022/01/11 07:13:54;;;;;;;1.50;1.23;;;;;;;-1.06;81.29;93156.50;5052015;28;20059;-39
2022/01/11 07:16:20;;;;;;;1.25;1.15;;;;;;;-1.06;80.48;93148.38;5051249;28;20495;-39
2022/01/11 07:18:47;;;;;;;1.45;0.77;;;;;;;-1.08;80.68;93152.78;5051654;28;20036;-38
2022/01/11 07:21:12;;;;;;;1.15;1.02;;;;;;;-1.08;81.44;93147.34;5051438;28;20100;-39
2022/01/11 07:23:38;;;;;;;1.25;0.90;;;;;;;-1.32;81.92;93130.69;5051608;28;20108;-38
2022/01/11 07:26:07;;;;;;;1.52;1.25;;;;;;;-1.13;80.75;93156.94;5051485;28;20035;-38
2022/01/11 07:28:33;;;;;;;1.00;0.90;;;;;;;-1.20;81.57;93156.63;5051702;28;20096;-38
2022/01/11 07:30:59;;;;;;;1.15;0.88;;;;;;;-1.04;79.65;93164.16;5051465;28;20498;-39
2022/01/11 07:33:24;;;;;;;8.10;3.92;;;;;;;-0.97;80.21;93171.81;5051288;28;20024;-38
2022/01/11 07:35:50;;;;;;;10.32;5.47;;;;;;;-0.80;79.54;93159.13;5051005;28;20078;-38
2022/01/11 07:38:15;;;;;;;7.10;4.32;;;;;;;-0.67;78.14;93178.44;5051085;28;20541;-40
2022/01/11 07:40:41;;;;;;;7.90;3.53;;;;;;;-0.54;78.08;93173.34;5051182;28;20494;-39
2022/01/11 07:43:07;;;;;;;4.57;2.90;;;;;;;-0.44;78.18;93171.94;5051470;28;20024;-39
2022/01/11 07:45:33;;;;;;;4.13;2.22;;;;;;;-0.27;75.64;93180.16;5051048;28;20021;-39
2022/01/11 07:47:58;;;;;;;23.40;10.85;;;;;;;-0.28;74.77;93176.72;5051408;28;20047;-39
2022/01/11 07:50:24;;;;;;;16.17;7.90;;;;;;;-0.17;75.42;93176.00;5051227;28;20513;-39
2022/01/11 07:52:51;;;;;;;9.32;4.18;;;;;;;0.00;74.80;93185.72;5050939;28;20519;-39
2022/01/11 07:55:18;;;;;;;7.75;3.60;;;;;;;0.07;74.43;93175.63;5051260;28;20021;-38
2022/01/11 07:57:44;;;;;;;1.92;1.10;;;;;;;-0.23;75.56;93176.00;5050853;28;20111;-39
2022/01/11 08:00:10;;;;;;;9.00;1.73;;;;;;;-0.38;77.09;93175.44;5050946;28;20029;-39
2022/01/11 08:02:35;;;;;;;2.00;1.77;;;;;;;-0.31;76.13;93172.28;5051062;28;20041;-39
2022/01/11 08:05:01;;;;;;;1.70;1.25;;;;;;;-0.14;76.21;93180.47;5050670;28;20105;-39
2022/01/11 08:07:26;;;;;;;1.92;1.33;;;;;;;-0.05;75.33;93189.16;5050767;28;20021;-39
2022/01/11 08:09:52;;;;;;;2.30;1.48;;;;;;;0.15;74.60;93195.66;5050499;28;20025;-39
2022/01/11 08:12:17;;;;;;;4.32;3.10;;;;;;;0.19;71.87;93198.88;5050691;28;20017;-39
2022/01/11 08:14:43;;;;;;;7.97;3.88;;;;;;;0.07;73.41;93192.66;5050542;28;20350;-39
2022/01/11 08:17:08;;;;;;;2.63;2.28;;;;;;;0.02;74.59;93198.06;5050620;28;20116;-39
2022/01/11 08:19:34;;;;;;;4.05;3.13;;;;;;;-0.07;75.13;93196.31;5050525;28;20131;-39
2022/01/11 08:21:59;;;;;;;4.07;2.85;;;;;;;-0.10;75.22;93197.28;5050828;28;20112;-39
2022/01/11 08:24:25;;;;;;;2.53;1.83;;;;;;;-0.14;75.53;93194.78;5050429;28;20025;-39
2022/01/11 08:26:53;;;;;;;2.80;2.13;;;;;;;-0.16;75.82;93191.81;5049665;28;20055;-38
2022/01/11 08:29:20;;;;;;;2.33;1.98;;;;;;;-0.17;76.16;93211.28;5050335;28;20506;-38
2022/01/11 08:31:46;;;;;;;3.88;2.45;;;;;;;-0.36;76.18;93200.09;5050270;28;20027;-39
2022/01/11 08:34:14;;;;;;;4.72;2.72;;;;;;;-0.42;76.76;93198.56;5050271;28;20108;-38
2022/01/11 08:36:41;;;;;;;5.77;2.43;;;;;;;-0.26;75.75;93211.50;5046231;28;20045;-39
2022/01/11 08:39:08;;;;;;;1.90;1.60;;;;;;;-0.56;76.93;93207.63;5050264;28;20544;-38
2022/01/11 08:41:34;;;;;;;2.20;1.98;;;;;;;-0.39;76.63;93222.75;5050218;28;20021;-39
2022/01/11 08:43:59;;;;;;;2.55;2.10;;;;;;;-0.25;75.96;93223.81;5050561;28;20128;-39
2022/01/11 08:46:24;;;;;;;1.88;1.10;;;;;;;-0.19;76.91;93217.22;5050408;28;20104;-39
2022/01/11 08:48:50;;;;;;;1.55;0.90;;;;;;;-0.19;75.85;93225.34;5050368;28;20421;-38
2022/01/11 08:51:18;;;;;;;1.25;1.15;;;;;;;-0.26;76.67;93231.22;5050061;28;20028;-39
2022/01/11 08:53:44;;;;;;;1.98;1.20;;;;;;;-0.27;76.56;93234.41;5050001;28;20021;-39
2022/01/11 08:56:11;;;;;;;3.95;1.40;;;;;;;-0.20;76.22;93225.84;5050385;28;20079;-38
2022/01/11 08:58:36;;;;;;;4.68;2.50;;;;;;;-0.30;75.29;93222.56;5050276;28;20028;-38
2022/01/11 09:01:02;;;;;;;2.90;2.00;;;;;;;-0.10;75.14;93232.53;5050062;28;20530;-39
2022/01/11 09:03:28;;;;;;;2.35;1.58;;;;;;;0.03;74.29;93232.09;5050263;28;20072;-38
2022/01/11 09:05:53;;;;;;;4.82;3.20;;;;;;;-0.04;74.28;93225.91;5049996;28;20039;-39
2022/01/11 09:08:20;;;;;;;2.38;1.90;;;;;;;0.03;73.46;93219.28;5050308;28;20040;-39
2022/01/11 09:10:46;;;;;;;2.58;1.98;;;;;;;0.00;73.69;93239.28;5049723;28;20029;-38
2022/01/11 09:13:12;;;;;;;1.45;1.25;;;;;;;-0.38;73.73;93221.53;5049849;28;20102;-39
2022/01/11 09:15:38;;;;;;;1.75;1.65;;;;;;;-0.23;75.58;93240.38;5049927;28;20089;-39
2022/01/11 09:18:04;;;;;;;1.02;0.93;;;;;;;-0.13;74.38;93249.81;5049853;28;20063;-39
2022/01/11 09:20:31;;;;;;;2.40;2.20;;;;;;;-0.19;74.09;93251.72;5050153;28;20017;-39
2022/01/11 09:22:57;;;;;;;1.60;1.27;;;;;;;-0.27;74.06;93245.28;5050036;28;20050;-39
2022/01/11 09:25:22;;;;;;;3.08;1.90;;;;;;;-0.32;74.44;93256.81;5049845;28;20024;-39
2022/01/11 09:27:48;;;;;;;2.00;1.50;;;;;;;-0.58;74.70;93248.75;5049781;28;20029;-38
2022/01/11 09:30:14;;;;;;;6.80;2.70;;;;;;;-0.46;74.87;93265.84;5049652;28;20021;-38
2022/01/11 09:32:41;;;;;;;4.05;2.25;;;;;;;-0.47;74.72;93253.50;5049733;28;20064;-39
2022/01/11 09:35:09;;;;;;;4.13;2.38;;;;;;;-0.47;73.19;93267.81;5049007;28;20039;-38
2022/01/11 09:37:35;;;;;;;3.35;2.28;;;;;;;-0.32;72.47;93273.84;5049667;28;20449;-38
2022/01/11 09:40:01;;;;;;;3.78;2.10;;;;;;;-0.30;73.52;93246.97;5053531;28;20028;-38
2022/01/11 09:42:27;;;;;;;3.83;1.90;;;;;;;-0.38;72.52;93270.34;5053481;28;20025;-38
2022/01/11 09:44:53;;;;;;;1.50;1.38;;;;;;;-0.41;74.00;93268.59;5053436;28;20025;-38
2022/01/11 09:47:18;;;;;;;2.05;1.58;;;;;;;-0.57;73.79;93265.78;5053416;28;20021;-38
2022/01/11 09:49:44;;;;;;;3.40;2.45;;;;;;;-0.62;74.98;93269.94;5053224;28;20504;-39
2022/01/11 09:52:10;;;;;;;2.45;1.83;;;;;;;-0.39;72.72;93274.28;5053416;28;20082;-38
2022/01/11 09:54:38;;;;;;;1.05;0.90;;;;;;;-0.41;73.12;93274.03;5053213;28;20037;-39
2022/01/11 09:57:04;;;;;;;4.15;2.00;;;;;;;-0.49;74.12;93274.94;5053168;28;20067;-38
2022/01/11 09:59:31;;;;;;;3.65;2.33;;;;;;;-0.55;74.07;93287.72;5053193;28;20551;-38
2022/01/11 10:01:57;;;;;;;3.95;1.70;;;;;;;-0.61;73.84;93254.41;5053441;28;20405;-38
2022/01/11 10:04:27;;;;;;;5.13;1.85;;;;;;;-0.66;73.50;93265.94;5053019;28;20021;-37
2022/01/11 10:06:56;;;;;;;1.52;1.27;;;;;;;-0.60;73.66;93262.06;5053320;28;20086;-38
2022/01/11 10:09:22;;;;;;;1.40;1.30;;;;;;;-0.63;73.55;93271.16;5052975;28;20090;-38
2022/01/11 10:11:53;;;;;;;8.00;2.65;;;;;;;-0.59;72.69;93287.19;5052927;28;20454;-37
2022/01/11 10:14:31;;;;;;;3.92;2.63;;;;;;;-0.70;74.15;93281.69;5053215;28;20383;-38
2022/01/11 10:17:37;;;;;;;5.07;3.08;;;;;;;-0.65;74.66;93276.28;5053352;28;20040;-38
2022/01/11 10:20:22;;;;;;;7.20;2.50;;;;;;;-0.75;74.73;93266.88;5050328;28;20035;-38
2022/01/11 10:23:07;;;;;;;2.50;1.50;;;;;;;-0.46;73.64;93282.88;5050768;28;20037;-38
2022/01/11 10:25:43;;;;;;;1.98;1.20;;;;;;;-0.35;72.45;93287.63;5053056;28;20021;-38
2022/01/11 10:28:08;;;;;;;1.92;1.52;;;;;;;-0.09;72.01;93277.47;5052566;28;20036;-38
2022/01/11 10:30:35;;;;;;;4.55;1.77;;;;;;;-0.11;72.96;93282.63;5052497;28;20029;-38
2022/01/11 10:33:06;;;;;;;5.18;3.08;;;;;;;0.10;71.59;93278.56;5052523;28;20055;-38
2022/01/11 10:35:43;;;;;;;6.00;3.30;;;;;;;0.08;72.28;93280.25;5052182;28;20509;-39
2022/01/11 10:38:10;;;;;;;4.95;2.60;;;;;;;0.27;72.08;93284.81;5052211;28;20064;-38
2022/01/11 10:40:39;;;;;;;2.22;1.70;;;;;;;0.38;69.94;93255.00;5052567;28;20452;-38
2022/01/11 10:43:11;;;;;;;3.28;2.13;;;;;;;0.59;70.85;93288.88;5052277;28;20025;-38
2022/01/11 10:45:39;;;;;;;1.75;1.55;;;;;;;0.78;69.95;93281.78;5052288;28;20020;-38
2022/01/11 10:48:09;;;;;;;1.90;1.70;;;;;;;1.21;67.01;93285.09;5052495;28;20406;-38
2022/01/11 10:50:42;;;;;;;5.68;3.15;;;;;;;1.27;67.82;93283.13;5051596;28;20091;-38
2022/01/11 10:53:15;;;;;;;3.92;2.85;;;;;;;1.05;65.87;93293.22;5052161;28;20028;-38
2022/01/11 10:55:41;;;;;;;3.53;2.33;;;;;;;0.53;68.31;93276.53;5052490;28;20417;-39
2022/01/11 10:58:10;;;;;;;2.38;1.73;;;;;;;0.83;67.23;93291.19;5052361;28;20020;-39
2022/01/11 11:00:37;;;;;;;6.13;4.22;;;;;;;0.75;67.65;93277.34;5052005;28;20017;-39
2022/01/11 11:03:10;;;;;;;3.00;2.42;;;;;;;0.47;68.10;93279.22;5052285;28;20091;-39
2022/01/11 11:05:38;;;;;;;7.78;3.58;;;;;;;0.35;69.98;93279.63;5052150;28;20077;-39
2022/01/11 11:08:10;;;;;;;2.85;2.50;;;;;;;0.37;69.25;93274.50;5051951;28;20082;-39
2022/01/11 11:10:55;;;;;;;4.93;3.22;;;;;;;0.41;68.58;93294.72;5051980;28;20539;-39
2022/01/11 11:13:35;;;;;;;2.35;2.05;;;;;;;0.21;69.73;93278.63;5052209;28;20029;-39
2022/01/11 11:16:11;;;;;;;3.08;2.42;;;;;;;0.11;69.96;93298.31;5052114;28;20032;-39
2022/01/11 11:18:41;;;;;;;7.68;3.35;;;;;;;-0.07;70.17;93281.19;5051665;28;20100;-38
2022/01/11 11:21:13;;;;;;;2.80;2.17;;;;;;;-0.23;70.83;93281.81;5051654;28;20498;-38
2022/01/11 11:23:39;;;;;;;5.22;2.90;;;;;;;-0.45;71.78;93246.38;5051603;28;20033;-38
2022/01/11 11:26:04;;;;;;;5.80;3.92;;;;;;;-0.42;72.07;93279.94;5051613;28;20101;-39
2022/01/11 11:28:30;;;;;;;3.58;2.60;;;;;;;-0.35;72.47;93277.53;5051839;28;20095;-39
2022/01/11 11:30:56;;;;;;;4.50;3.15;;;;;;;-0.41;71.97;93284.16;5051396;28;20417;-39
2022/01/11 11:33:22;;;;;;;7.05;3.97;;;;;;;-0.48;72.42;93274.50;5050217;28;20020;-38
2022/01/11 11:35:49;;;;;;;4.85;3.25;;;;;;;-0.50;72.29;93285.06;5049510;28;20017;-38
2022/01/11 11:38:15;;;;;;;7.53;3.90;;;;;;;-0.68;73.26;93280.00;5051213;28;20415;-38
2022/01/11 11:40:41;;;;;;;5.57;3.78;;;;;;;-0.46;72.49;93296.44;5051300;28;20016;-38